sensor_id;sensor_type;location;lat;lon;timestamp;P1;durP1;ratioP1;P2;durP2;ratioP2
60999;SDS011;46879;45.658;11.814;2023-08-01T00:01:47;4.95;;;2.80;;
60999;SDS011;46879;45.658;11.814;2023-08-01T00:06:48;5.55;;;2.85;;
60999;SDS011;46879;45.658;11.814;2023-08-01T00:11:48;3.00;;;2.70;;
60999;SDS011;46879;45.658;11.814;2023-08-01T00:16:49;7.20;;;2.90;;
60999;SDS011;46879;45.658;11.814;2023-08-01T00:21:51;2.83;;;2.30;;
60999;SDS011;46879;45.658;11.814;2023-08-01T00:26:51;3.03;;;2.60;;
60999;SDS011;46879;45.658;11.814;2023-08-01T00:31:55;5.70;;;2.30;;
60999;SDS011;46879;45.658;11.814;2023-08-01T00:36:56;8.38;;;2.80;;
60999;SDS011;46879;45.658;11.814;2023-08-01T00:41:57;3.13;;;2.42;;
60999;SDS011;46879;45.658;11.814;2023-08-01T00:46:57;7.25;;;2.50;;
60999;SDS011;46879;45.658;11.814;2023-08-01T00:51:58;5.50;;;2.05;;
60999;SDS011;46879;45.658;11.814;2023-08-01T00:56:59;2.42;;;2.13;;
60999;SDS011;46879;45.658;11.814;2023-08-01T01:01:59;3.25;;;2.67;;
60999;SDS011;46879;45.658;11.814;2023-08-01T01:07:02;4.50;;;2.40;;
60999;SDS011;46879;45.658;11.814;2023-08-01T01:12:05;5.18;;;2.63;;
60999;SDS011;46879;45.658;11.814;2023-08-01T01:17:07;6.97;;;2.33;;
60999;SDS011;46879;45.658;11.814;2023-08-01T01:22:08;3.55;;;2.55;;
60999;SDS011;46879;45.658;11.814;2023-08-01T01:27:10;3.25;;;2.10;;
60999;SDS011;46879;45.658;11.814;2023-08-01T01:32:12;4.07;;;2.30;;
60999;SDS011;46879;45.658;11.814;2023-08-01T01:37:14;2.53;;;2.00;;
60999;SDS011;46879;45.658;11.814;2023-08-01T01:42:14;4.68;;;2.13;;
60999;SDS011;46879;45.658;11.814;2023-08-01T01:47:15;3.17;;;2.22;;
60999;SDS011;46879;45.658;11.814;2023-08-01T01:52:17;3.47;;;2.05;;
60999;SDS011;46879;45.658;11.814;2023-08-01T01:57:18;3.42;;;2.17;;
60999;SDS011;46879;45.658;11.814;2023-08-01T02:02:18;2.58;;;1.95;;
60999;SDS011;46879;45.658;11.814;2023-08-01T02:07:19;2.65;;;2.08;;
60999;SDS011;46879;45.658;11.814;2023-08-01T02:12:20;3.67;;;2.30;;
60999;SDS011;46879;45.658;11.814;2023-08-01T02:17:20;5.05;;;2.45;;
60999;SDS011;46879;45.658;11.814;2023-08-01T02:22:21;3.13;;;2.35;;
60999;SDS011;46879;45.658;11.814;2023-08-01T02:27:22;3.47;;;2.33;;
60999;SDS011;46879;45.658;11.814;2023-08-01T02:32:22;3.95;;;2.67;;
60999;SDS011;46879;45.658;11.814;2023-08-01T02:37:23;3.10;;;2.38;;
60999;SDS011;46879;45.658;11.814;2023-08-01T02:42:24;3.38;;;2.50;;
60999;SDS011;46879;45.658;11.814;2023-08-01T02:47:24;2.47;;;2.20;;
60999;SDS011;46879;45.658;11.814;2023-08-01T02:52:25;7.50;;;2.40;;
60999;SDS011;46879;45.658;11.814;2023-08-01T02:57:25;3.70;;;2.42;;
60999;SDS011;46879;45.658;11.814;2023-08-01T03:02:26;6.00;;;2.42;;
60999;SDS011;46879;45.658;11.814;2023-08-01T03:07:27;4.20;;;2.65;;
60999;SDS011;46879;45.658;11.814;2023-08-01T03:12:28;3.92;;;2.63;;
60999;SDS011;46879;45.658;11.814;2023-08-01T03:17:28;4.55;;;2.58;;
60999;SDS011;46879;45.658;11.814;2023-08-01T03:22:29;5.88;;;2.42;;
60999;SDS011;46879;45.658;11.814;2023-08-01T03:27:30;4.15;;;2.55;;
60999;SDS011;46879;45.658;11.814;2023-08-01T03:32:30;13.02;;;2.78;;
60999;SDS011;46879;45.658;11.814;2023-08-01T03:37:31;4.47;;;2.90;;
60999;SDS011;46879;45.658;11.814;2023-08-01T03:42:32;2.95;;;2.63;;
60999;SDS011;46879;45.658;11.814;2023-08-01T03:47:33;4.22;;;2.45;;
60999;SDS011;46879;45.658;11.814;2023-08-01T03:52:33;6.82;;;3.10;;
60999;SDS011;46879;45.658;11.814;2023-08-01T03:57:34;2.67;;;2.40;;
60999;SDS011;46879;45.658;11.814;2023-08-01T04:02:35;6.97;;;2.65;;
60999;SDS011;46879;45.658;11.814;2023-08-01T04:07:36;5.07;;;2.70;;
60999;SDS011;46879;45.658;11.814;2023-08-01T04:12:37;3.60;;;2.53;;
60999;SDS011;46879;45.658;11.814;2023-08-01T04:17:38;2.30;;;2.10;;
60999;SDS011;46879;45.658;11.814;2023-08-01T04:22:38;9.13;;;2.63;;
60999;SDS011;46879;45.658;11.814;2023-08-01T04:27:39;7.50;;;2.88;;
60999;SDS011;46879;45.658;11.814;2023-08-01T04:32:40;5.40;;;2.72;;
60999;SDS011;46879;45.658;11.814;2023-08-01T04:37:40;3.38;;;2.83;;
60999;SDS011;46879;45.658;11.814;2023-08-01T04:42:41;5.07;;;2.22;;
60999;SDS011;46879;45.658;11.814;2023-08-01T04:47:41;4.30;;;2.65;;
60999;SDS011;46879;45.658;11.814;2023-08-01T04:52:42;2.85;;;2.40;;
60999;SDS011;46879;45.658;11.814;2023-08-01T04:57:42;3.78;;;2.63;;
60999;SDS011;46879;45.658;11.814;2023-08-01T05:02:43;5.13;;;2.97;;
60999;SDS011;46879;45.658;11.814;2023-08-01T05:07:43;19.88;;;2.83;;
60999;SDS011;46879;45.658;11.814;2023-08-01T05:12:44;5.60;;;2.53;;
60999;SDS011;46879;45.658;11.814;2023-08-01T05:17:45;4.03;;;2.90;;
60999;SDS011;46879;45.658;11.814;2023-08-01T05:22:45;16.67;;;2.45;;
60999;SDS011;46879;45.658;11.814;2023-08-01T05:27:46;2.92;;;1.95;;
60999;SDS011;46879;45.658;11.814;2023-08-01T05:32:46;8.93;;;2.50;;
60999;SDS011;46879;45.658;11.814;2023-08-01T05:37:47;9.25;;;2.53;;
60999;SDS011;46879;45.658;11.814;2023-08-01T05:42:47;3.58;;;2.50;;
60999;SDS011;46879;45.658;11.814;2023-08-01T05:47:48;3.05;;;2.00;;
60999;SDS011;46879;45.658;11.814;2023-08-01T05:52:49;7.03;;;1.85;;
60999;SDS011;46879;45.658;11.814;2023-08-01T05:57:49;20.58;;;3.00;;
60999;SDS011;46879;45.658;11.814;2023-08-01T06:02:52;10.95;;;2.58;;
60999;SDS011;46879;45.658;11.814;2023-08-01T06:07:53;7.55;;;2.78;;
60999;SDS011;46879;45.658;11.814;2023-08-01T06:12:53;7.05;;;2.70;;
60999;SDS011;46879;45.658;11.814;2023-08-01T06:17:54;12.15;;;2.80;;
60999;SDS011;46879;45.658;11.814;2023-08-01T06:22:54;9.90;;;2.85;;
60999;SDS011;46879;45.658;11.814;2023-08-01T06:27:55;4.65;;;2.65;;
60999;SDS011;46879;45.658;11.814;2023-08-01T06:32:56;8.45;;;3.00;;
60999;SDS011;46879;45.658;11.814;2023-08-01T06:37:56;7.18;;;2.72;;
60999;SDS011;46879;45.658;11.814;2023-08-01T06:42:57;3.90;;;2.45;;
60999;SDS011;46879;45.658;11.814;2023-08-01T06:47:57;7.18;;;2.55;;
60999;SDS011;46879;45.658;11.814;2023-08-01T06:52:58;6.65;;;2.85;;
60999;SDS011;46879;45.658;11.814;2023-08-01T06:57:59;6.57;;;2.92;;
60999;SDS011;46879;45.658;11.814;2023-08-01T07:02:59;8.15;;;3.38;;
60999;SDS011;46879;45.658;11.814;2023-08-01T07:08:00;5.65;;;3.10;;
60999;SDS011;46879;45.658;11.814;2023-08-01T07:13:01;11.60;;;2.97;;
60999;SDS011;46879;45.658;11.814;2023-08-01T07:18:05;4.25;;;2.25;;
60999;SDS011;46879;45.658;11.814;2023-08-01T07:23:05;6.65;;;2.60;;
60999;SDS011;46879;45.658;11.814;2023-08-01T07:28:06;7.78;;;2.80;;
60999;SDS011;46879;45.658;11.814;2023-08-01T07:33:06;5.63;;;2.50;;
60999;SDS011;46879;45.658;11.814;2023-08-01T07:38:07;5.43;;;2.45;;
60999;SDS011;46879;45.658;11.814;2023-08-01T07:43:08;5.93;;;2.47;;
60999;SDS011;46879;45.658;11.814;2023-08-01T07:48:08;3.92;;;2.53;;
60999;SDS011;46879;45.658;11.814;2023-08-01T07:53:09;6.85;;;2.72;;
60999;SDS011;46879;45.658;11.814;2023-08-01T07:58:10;6.15;;;2.47;;
60999;SDS011;46879;45.658;11.814;2023-08-01T08:03:10;3.88;;;2.63;;
60999;SDS011;46879;45.658;11.814;2023-08-01T08:08:11;6.63;;;2.42;;
60999;SDS011;46879;45.658;11.814;2023-08-01T08:13:11;3.45;;;2.30;;
60999;SDS011;46879;45.658;11.814;2023-08-01T08:18:12;4.65;;;2.50;;
60999;SDS011;46879;45.658;11.814;2023-08-01T08:23:13;4.43;;;2.50;;
60999;SDS011;46879;45.658;11.814;2023-08-01T08:28:26;3.90;;;2.60;;
60999;SDS011;46879;45.658;11.814;2023-08-01T08:33:32;4.65;;;2.42;;
60999;SDS011;46879;45.658;11.814;2023-08-01T08:38:33;3.53;;;2.50;;
60999;SDS011;46879;45.658;11.814;2023-08-01T08:43:34;3.10;;;2.17;;
60999;SDS011;46879;45.658;11.814;2023-08-01T08:48:35;4.57;;;2.60;;
60999;SDS011;46879;45.658;11.814;2023-08-01T08:53:38;3.90;;;2.42;;
60999;SDS011;46879;45.658;11.814;2023-08-01T08:58:41;5.55;;;2.38;;
60999;SDS011;46879;45.658;11.814;2023-08-01T09:03:42;5.45;;;2.65;;
60999;SDS011;46879;45.658;11.814;2023-08-01T09:08:48;4.63;;;2.67;;
60999;SDS011;46879;45.658;11.814;2023-08-01T09:14:04;8.27;;;2.40;;
60999;SDS011;46879;45.658;11.814;2023-08-01T09:19:05;4.00;;;2.53;;
60999;SDS011;46879;45.658;11.814;2023-08-01T09:29:20;5.25;;;2.22;;
60999;SDS011;46879;45.658;11.814;2023-08-01T09:34:24;5.00;;;2.60;;
60999;SDS011;46879;45.658;11.814;2023-08-01T09:39:26;3.30;;;2.10;;
60999;SDS011;46879;45.658;11.814;2023-08-01T09:44:28;6.30;;;2.28;;
60999;SDS011;46879;45.658;11.814;2023-08-01T09:49:30;5.63;;;2.05;;
60999;SDS011;46879;45.658;11.814;2023-08-01T09:54:31;4.60;;;2.45;;
60999;SDS011;46879;45.658;11.814;2023-08-01T09:59:31;3.65;;;2.45;;
60999;SDS011;46879;45.658;11.814;2023-08-01T10:04:33;4.53;;;2.20;;
60999;SDS011;46879;45.658;11.814;2023-08-01T10:09:36;4.68;;;2.28;;
60999;SDS011;46879;45.658;11.814;2023-08-01T10:14:37;6.82;;;2.40;;
60999;SDS011;46879;45.658;11.814;2023-08-01T10:19:38;4.45;;;1.90;;
60999;SDS011;46879;45.658;11.814;2023-08-01T10:24:40;3.58;;;2.33;;
60999;SDS011;46879;45.658;11.814;2023-08-01T10:29:42;3.55;;;2.13;;
60999;SDS011;46879;45.658;11.814;2023-08-01T10:34:50;4.68;;;2.75;;
60999;SDS011;46879;45.658;11.814;2023-08-01T10:39:58;4.22;;;2.22;;
60999;SDS011;46879;45.658;11.814;2023-08-01T10:45:00;2.53;;;2.00;;
60999;SDS011;46879;45.658;11.814;2023-08-01T10:50:00;4.00;;;2.20;;
60999;SDS011;46879;45.658;11.814;2023-08-01T10:55:02;3.45;;;2.20;;
60999;SDS011;46879;45.658;11.814;2023-08-01T11:00:05;2.60;;;1.95;;
60999;SDS011;46879;45.658;11.814;2023-08-01T11:05:10;3.03;;;2.20;;
60999;SDS011;46879;45.658;11.814;2023-08-01T11:10:12;3.72;;;2.53;;
60999;SDS011;46879;45.658;11.814;2023-08-01T11:15:14;3.08;;;2.20;;
60999;SDS011;46879;45.658;11.814;2023-08-01T11:20:15;3.53;;;1.85;;
60999;SDS011;46879;45.658;11.814;2023-08-01T11:25:18;6.32;;;2.30;;
60999;SDS011;46879;45.658;11.814;2023-08-01T11:30:18;3.13;;;2.33;;
60999;SDS011;46879;45.658;11.814;2023-08-01T11:35:19;2.63;;;1.95;;
60999;SDS011;46879;45.658;11.814;2023-08-01T11:40:20;2.53;;;1.80;;
60999;SDS011;46879;45.658;11.814;2023-08-01T11:45:20;2.65;;;1.83;;
60999;SDS011;46879;45.658;11.814;2023-08-01T11:50:21;3.25;;;1.98;;
60999;SDS011;46879;45.658;11.814;2023-08-01T11:55:27;3.50;;;2.13;;
60999;SDS011;46879;45.658;11.814;2023-08-01T12:00:28;2.83;;;2.08;;
60999;SDS011;46879;45.658;11.814;2023-08-01T12:05:29;3.47;;;2.20;;
60999;SDS011;46879;45.658;11.814;2023-08-01T12:10:51;2.97;;;2.28;;
60999;SDS011;46879;45.658;11.814;2023-08-01T12:15:51;7.65;;;2.38;;
60999;SDS011;46879;45.658;11.814;2023-08-01T12:20:53;3.13;;;2.20;;
60999;SDS011;46879;45.658;11.814;2023-08-01T12:25:54;3.30;;;2.50;;
60999;SDS011;46879;45.658;11.814;2023-08-01T12:30:54;3.95;;;2.42;;
60999;SDS011;46879;45.658;11.814;2023-08-01T12:36:02;2.53;;;2.28;;
60999;SDS011;46879;45.658;11.814;2023-08-01T12:41:03;2.90;;;2.45;;
60999;SDS011;46879;45.658;11.814;2023-08-01T12:46:04;5.82;;;2.60;;
60999;SDS011;46879;45.658;11.814;2023-08-01T12:51:05;7.22;;;2.35;;
60999;SDS011;46879;45.658;11.814;2023-08-01T12:56:05;5.07;;;2.45;;
60999;SDS011;46879;45.658;11.814;2023-08-01T13:01:06;4.18;;;2.33;;
60999;SDS011;46879;45.658;11.814;2023-08-01T13:06:10;8.60;;;3.17;;
60999;SDS011;46879;45.658;11.814;2023-08-01T13:11:13;8.90;;;3.00;;
60999;SDS011;46879;45.658;11.814;2023-08-01T13:16:14;5.05;;;2.60;;
60999;SDS011;46879;45.658;11.814;2023-08-01T13:21:15;4.68;;;2.33;;
60999;SDS011;46879;45.658;11.814;2023-08-01T13:26:16;16.15;;;3.10;;
60999;SDS011;46879;45.658;11.814;2023-08-01T13:31:16;9.43;;;2.60;;
60999;SDS011;46879;45.658;11.814;2023-08-01T13:36:17;2.72;;;2.42;;
60999;SDS011;46879;45.658;11.814;2023-08-01T13:41:18;3.13;;;2.58;;
60999;SDS011;46879;45.658;11.814;2023-08-01T13:46:19;3.67;;;2.50;;
60999;SDS011;46879;45.658;11.814;2023-08-01T13:51:19;9.13;;;3.05;;
60999;SDS011;46879;45.658;11.814;2023-08-01T13:56:20;3.25;;;2.72;;
60999;SDS011;46879;45.658;11.814;2023-08-01T14:01:21;7.03;;;3.13;;
60999;SDS011;46879;45.658;11.814;2023-08-01T14:06:23;3.95;;;2.88;;
60999;SDS011;46879;45.658;11.814;2023-08-01T14:11:23;4.00;;;2.65;;
60999;SDS011;46879;45.658;11.814;2023-08-01T14:16:24;6.93;;;2.65;;
60999;SDS011;46879;45.658;11.814;2023-08-01T14:21:24;4.82;;;2.67;;
60999;SDS011;46879;45.658;11.814;2023-08-01T14:26:25;5.30;;;2.88;;
60999;SDS011;46879;45.658;11.814;2023-08-01T14:31:25;3.22;;;2.65;;
60999;SDS011;46879;45.658;11.814;2023-08-01T14:36:26;3.50;;;2.75;;
60999;SDS011;46879;45.658;11.814;2023-08-01T14:41:26;3.00;;;2.70;;
60999;SDS011;46879;45.658;11.814;2023-08-01T14:46:27;3.90;;;2.80;;
60999;SDS011;46879;45.658;11.814;2023-08-01T14:51:28;4.68;;;2.40;;
60999;SDS011;46879;45.658;11.814;2023-08-01T14:56:28;11.65;;;2.60;;
60999;SDS011;46879;45.658;11.814;2023-08-01T15:01:30;3.10;;;2.45;;
60999;SDS011;46879;45.658;11.814;2023-08-01T15:06:30;2.90;;;2.28;;
60999;SDS011;46879;45.658;11.814;2023-08-01T15:11:31;3.60;;;2.50;;
60999;SDS011;46879;45.658;11.814;2023-08-01T15:16:31;3.22;;;2.38;;
60999;SDS011;46879;45.658;11.814;2023-08-01T15:21:32;6.50;;;2.47;;
60999;SDS011;46879;45.658;11.814;2023-08-01T15:26:32;4.25;;;2.40;;
60999;SDS011;46879;45.658;11.814;2023-08-01T15:31:34;6.80;;;2.97;;
60999;SDS011;46879;45.658;11.814;2023-08-01T15:36:35;3.95;;;2.58;;
60999;SDS011;46879;45.658;11.814;2023-08-01T15:41:36;2.50;;;2.30;;
60999;SDS011;46879;45.658;11.814;2023-08-01T15:46:37;3.70;;;2.60;;
60999;SDS011;46879;45.658;11.814;2023-08-01T15:51:37;3.95;;;2.35;;
60999;SDS011;46879;45.658;11.814;2023-08-01T15:56:38;8.02;;;2.88;;
60999;SDS011;46879;45.658;11.814;2023-08-01T16:01:38;4.60;;;2.70;;
60999;SDS011;46879;45.658;11.814;2023-08-01T16:06:39;6.25;;;2.65;;
60999;SDS011;46879;45.658;11.814;2023-08-01T16:11:39;4.40;;;2.75;;
60999;SDS011;46879;45.658;11.814;2023-08-01T16:16:40;3.38;;;2.40;;
60999;SDS011;46879;45.658;11.814;2023-08-01T16:21:40;3.10;;;2.75;;
60999;SDS011;46879;45.658;11.814;2023-08-01T16:26:41;3.20;;;2.42;;
60999;SDS011;46879;45.658;11.814;2023-08-01T16:31:42;4.07;;;2.80;;
60999;SDS011;46879;45.658;11.814;2023-08-01T16:36:42;2.80;;;2.58;;
60999;SDS011;46879;45.658;11.814;2023-08-01T16:41:43;4.00;;;2.85;;
60999;SDS011;46879;45.658;11.814;2023-08-01T16:46:43;4.50;;;2.75;;
60999;SDS011;46879;45.658;11.814;2023-08-01T16:51:44;5.50;;;2.63;;
60999;SDS011;46879;45.658;11.814;2023-08-01T16:56:44;3.50;;;2.47;;
60999;SDS011;46879;45.658;11.814;2023-08-01T17:01:45;2.97;;;2.67;;
60999;SDS011;46879;45.658;11.814;2023-08-01T17:06:45;4.85;;;2.97;;
60999;SDS011;46879;45.658;11.814;2023-08-01T17:11:47;3.00;;;2.50;;
60999;SDS011;46879;45.658;11.814;2023-08-01T17:16:47;4.53;;;2.47;;
60999;SDS011;46879;45.658;11.814;2023-08-01T17:21:48;3.67;;;2.97;;
60999;SDS011;46879;45.658;11.814;2023-08-01T17:26:48;7.60;;;2.83;;
60999;SDS011;46879;45.658;11.814;2023-08-01T17:31:49;3.92;;;2.58;;
60999;SDS011;46879;45.658;11.814;2023-08-01T17:36:50;4.75;;;2.67;;
60999;SDS011;46879;45.658;11.814;2023-08-01T17:41:50;3.08;;;2.35;;
60999;SDS011;46879;45.658;11.814;2023-08-01T17:46:53;4.05;;;2.60;;
60999;SDS011;46879;45.658;11.814;2023-08-01T17:51:54;4.18;;;2.70;;
60999;SDS011;46879;45.658;11.814;2023-08-01T17:56:54;6.05;;;2.85;;
60999;SDS011;46879;45.658;11.814;2023-08-01T18:01:55;3.03;;;2.70;;
60999;SDS011;46879;45.658;11.814;2023-08-01T18:06:55;4.45;;;2.88;;
60999;SDS011;46879;45.658;11.814;2023-08-01T18:11:56;7.38;;;2.90;;
60999;SDS011;46879;45.658;11.814;2023-08-01T18:16:56;2.75;;;2.38;;
60999;SDS011;46879;45.658;11.814;2023-08-01T18:21:57;4.70;;;2.78;;
60999;SDS011;46879;45.658;11.814;2023-08-01T18:26:58;4.32;;;2.90;;
60999;SDS011;46879;45.658;11.814;2023-08-01T18:31:58;3.15;;;2.63;;
60999;SDS011;46879;45.658;11.814;2023-08-01T18:36:59;4.25;;;3.05;;
60999;SDS011;46879;45.658;11.814;2023-08-01T18:41:59;3.30;;;3.00;;
60999;SDS011;46879;45.658;11.814;2023-08-01T18:47:00;4.03;;;2.63;;
60999;SDS011;46879;45.658;11.814;2023-08-01T18:52:00;6.22;;;3.60;;
60999;SDS011;46879;45.658;11.814;2023-08-01T18:57:01;5.10;;;4.25;;
60999;SDS011;46879;45.658;11.814;2023-08-01T19:02:02;6.30;;;4.22;;
60999;SDS011;46879;45.658;11.814;2023-08-01T19:07:02;6.60;;;3.40;;
60999;SDS011;46879;45.658;11.814;2023-08-01T19:12:06;4.18;;;3.45;;
60999;SDS011;46879;45.658;11.814;2023-08-01T19:17:07;4.53;;;3.60;;
60999;SDS011;46879;45.658;11.814;2023-08-01T19:22:08;5.43;;;3.30;;
60999;SDS011;46879;45.658;11.814;2023-08-01T19:27:09;8.38;;;2.88;;
60999;SDS011;46879;45.658;11.814;2023-08-01T19:32:09;15.77;;;3.30;;
60999;SDS011;46879;45.658;11.814;2023-08-01T19:37:10;7.45;;;2.92;;
60999;SDS011;46879;45.658;11.814;2023-08-01T19:42:11;3.30;;;2.42;;
60999;SDS011;46879;45.658;11.814;2023-08-01T19:47:12;5.63;;;2.90;;
60999;SDS011;46879;45.658;11.814;2023-08-01T19:52:13;4.30;;;2.90;;
60999;SDS011;46879;45.658;11.814;2023-08-01T19:57:14;4.15;;;2.28;;
60999;SDS011;46879;45.658;11.814;2023-08-01T20:02:14;2.92;;;2.60;;
60999;SDS011;46879;45.658;11.814;2023-08-01T20:07:15;3.90;;;2.50;;
60999;SDS011;46879;45.658;11.814;2023-08-01T20:12:16;4.25;;;2.42;;
60999;SDS011;46879;45.658;11.814;2023-08-01T20:17:17;3.75;;;1.98;;
60999;SDS011;46879;45.658;11.814;2023-08-01T20:22:21;2.85;;;2.00;;
60999;SDS011;46879;45.658;11.814;2023-08-01T20:27:21;2.83;;;1.55;;
60999;SDS011;46879;45.658;11.814;2023-08-01T20:32:22;2.75;;;2.00;;
60999;SDS011;46879;45.658;11.814;2023-08-01T20:37:22;2.05;;;1.58;;
60999;SDS011;46879;45.658;11.814;2023-08-01T20:42:23;2.22;;;1.58;;
60999;SDS011;46879;45.658;11.814;2023-08-01T20:47:24;1.98;;;1.73;;
60999;SDS011;46879;45.658;11.814;2023-08-01T20:52:24;3.85;;;1.98;;
60999;SDS011;46879;45.658;11.814;2023-08-01T20:57:25;5.65;;;1.80;;
60999;SDS011;46879;45.658;11.814;2023-08-01T21:02:25;10.18;;;1.58;;
60999;SDS011;46879;45.658;11.814;2023-08-01T21:07:26;2.08;;;1.77;;
60999;SDS011;46879;45.658;11.814;2023-08-01T21:12:28;2.25;;;1.70;;
60999;SDS011;46879;45.658;11.814;2023-08-01T21:17:29;2.22;;;1.67;;
60999;SDS011;46879;45.658;11.814;2023-08-01T21:22:29;4.18;;;1.98;;
60999;SDS011;46879;45.658;11.814;2023-08-01T21:27:30;3.03;;;1.75;;
60999;SDS011;46879;45.658;11.814;2023-08-01T21:32:30;3.45;;;1.50;;
60999;SDS011;46879;45.658;11.814;2023-08-01T21:37:31;1.42;;;1.33;;
60999;SDS011;46879;45.658;11.814;2023-08-01T21:42:33;1.55;;;1.45;;
60999;SDS011;46879;45.658;11.814;2023-08-01T21:47:33;7.15;;;1.50;;
60999;SDS011;46879;45.658;11.814;2023-08-01T21:52:35;4.35;;;1.23;;
60999;SDS011;46879;45.658;11.814;2023-08-01T21:57:35;19.67;;;1.95;;
60999;SDS011;46879;45.658;11.814;2023-08-01T22:02:36;2.67;;;1.63;;
60999;SDS011;46879;45.658;11.814;2023-08-01T22:07:38;18.90;;;1.60;;
60999;SDS011;46879;45.658;11.814;2023-08-01T22:12:38;12.02;;;2.40;;
60999;SDS011;46879;45.658;11.814;2023-08-01T22:17:42;6.20;;;1.55;;
60999;SDS011;46879;45.658;11.814;2023-08-01T22:22:42;12.13;;;1.70;;
60999;SDS011;46879;45.658;11.814;2023-08-01T22:27:43;10.52;;;1.40;;
60999;SDS011;46879;45.658;11.814;2023-08-01T22:32:44;9.63;;;1.48;;
60999;SDS011;46879;45.658;11.814;2023-08-01T22:37:44;6.07;;;1.48;;
60999;SDS011;46879;45.658;11.814;2023-08-01T22:42:45;1.63;;;1.20;;
60999;SDS011;46879;45.658;11.814;2023-08-01T22:47:46;2.63;;;0.95;;
60999;SDS011;46879;45.658;11.814;2023-08-01T22:52:46;2.65;;;1.10;;
60999;SDS011;46879;45.658;11.814;2023-08-01T22:57:49;4.93;;;1.20;;
60999;SDS011;46879;45.658;11.814;2023-08-01T23:02:50;5.45;;;1.10;;
60999;SDS011;46879;45.658;11.814;2023-08-01T23:07:51;1.90;;;1.00;;
60999;SDS011;46879;45.658;11.814;2023-08-01T23:12:51;4.07;;;1.17;;
60999;SDS011;46879;45.658;11.814;2023-08-01T23:17:52;5.82;;;1.35;;
60999;SDS011;46879;45.658;11.814;2023-08-01T23:22:52;5.55;;;1.27;;
60999;SDS011;46879;45.658;11.814;2023-08-01T23:27:53;8.25;;;1.10;;
60999;SDS011;46879;45.658;11.814;2023-08-01T23:32:54;1.30;;;1.20;;
60999;SDS011;46879;45.658;11.814;2023-08-01T23:37:56;1.60;;;0.98;;
60999;SDS011;46879;45.658;11.814;2023-08-01T23:42:58;3.20;;;1.20;;
60999;SDS011;46879;45.658;11.814;2023-08-01T23:47:58;3.00;;;0.90;;
60999;SDS011;46879;45.658;11.814;2023-08-01T23:52:59;1.20;;;0.90;;
